Time;durP1;ratioP1;P1;durP2;ratioP2;P2;SDS_P1;SDS_P2;PMS_P1;PMS_P2;Temp;Humidity;BMP_temperature;BMP_pressure;BME280_temperature;BME280_humidity;BME280_pressure;Samples;Min_cycle;Max_cycle;Signal;HPM_P1;HPM_P2
2022/06/10 00:00:20;;;;;;;5.73;2.60;;;;;;;34.25;25.14;94396.78;5058904;28;20252;-62
2022/06/10 00:03:05;;;;;;;5.13;2.67;;;;;;;34.66;23.84;94408.63;5058151;28;20755;-61
2022/06/10 00:05:52;;;;;;;5.10;3.00;;;;;;;36.10;22.68;94400.66;5058015;28;20192;-61
2022/06/10 00:08:40;;;;;;;5.93;2.53;;;;;;;36.99;23.22;94401.06;5045606;28;20309;-61
2022/06/10 00:11:24;;;;;;;5.13;2.70;;;;;;;37.13;22.12;94410.28;5049085;28;20197;-61
2022/06/10 00:14:08;;;;;;;9.00;3.33;;;;;;;37.18;21.76;94417.47;5052524;28;20247;-61
2022/06/10 00:16:52;;;;;;;3.10;2.73;;;;;;;36.49;22.44;94415.94;5052276;28;20560;-61
2022/06/10 00:19:36;;;;;;;6.40;2.60;;;;;;;35.78;22.84;94410.69;5058346;28;20583;-61
2022/06/10 00:22:20;;;;;;;6.53;3.00;;;;;;;35.97;23.17;94408.19;5050994;28;20221;-61
2022/06/10 00:25:04;;;;;;;5.07;2.30;;;;;;;35.72;23.64;94407.16;5044804;28;20201;-61
2022/06/10 00:27:49;;;;;;;4.20;2.83;;;;;;;36.48;22.60;94405.75;5056687;28;20220;-61
2022/06/10 00:30:33;;;;;;;4.57;2.83;;;;;;;36.29;22.10;94406.88;5052582;28;20652;-61
2022/06/10 00:33:17;;;;;;;5.07;2.57;;;;;;;36.33;22.39;94407.53;5052190;28;20300;-61
2022/06/10 00:36:02;;;;;;;5.30;2.87;;;;;;;36.59;22.93;94412.13;5057749;28;20197;-60
2022/06/10 00:38:47;;;;;;;5.43;2.50;;;;;;;36.56;22.74;94415.84;5053461;28;20306;-61
2022/06/10 00:41:31;;;;;;;6.67;3.07;;;;;;;36.86;21.69;94406.47;5062781;28;20712;-61
2022/06/10 00:44:36;;;;;;;6.27;2.60;;;;;;;35.75;23.43;94414.38;5049251;28;20205;-60
2022/06/10 00:47:24;;;;;;;7.00;2.80;;;;;;;36.25;23.07;94416.44;5051889;28;20201;-60
2022/06/10 00:50:20;;;;;;;8.77;3.10;;;;;;;36.62;22.00;94416.44;5061211;28;20899;-60
2022/06/10 00:53:07;;;;;;;5.50;3.10;;;;;;;37.08;21.30;94408.91;5053166;28;20968;-60
2022/06/10 00:55:55;;;;;;;4.67;2.70;;;;;;;36.22;22.65;94412.13;5046827;28;20201;-60
2022/06/10 00:58:45;;;;;;;5.13;3.33;;;;;;;35.85;22.22;94408.41;5048581;28;20240;-60
2022/06/10 01:01:32;;;;;;;7.70;2.80;;;;;;;37.18;22.06;94411.63;5066849;28;20295;-60
2022/06/10 01:04:17;;;;;;;10.63;2.97;;;;;;;36.93;21.92;94413.63;5059415;28;20213;-60
2022/06/10 01:07:01;;;;;;;9.87;3.87;;;;;;;35.95;23.23;94411.13;5056416;28;20240;-60
2022/06/10 01:09:47;;;;;;;8.20;3.47;;;;;;;36.74;21.47;94406.72;5049361;28;20255;-60
2022/06/10 01:12:46;;;;;;;6.70;3.33;;;;;;;37.39;21.30;94417.00;5048555;28;20644;-60
2022/06/10 01:15:48;;;;;;;4.63;3.00;;;;;;;36.11;22.11;94404.97;5045108;28;20241;-60
2022/06/10 01:18:54;;;;;;;4.80;3.20;;;;;;;36.84;21.78;94406.53;5052020;28;20228;-60
2022/06/10 01:21:44;;;;;;;6.00;2.80;;;;;;;37.13;21.99;94398.59;5045966;28;20225;-60
2022/06/10 01:24:37;;;;;;;6.33;3.03;;;;;;;36.91;22.23;94407.81;5061448;28;20296;-60
2022/06/10 01:27:49;;;;;;;5.73;3.33;;;;;;;36.97;21.39;94410.63;5056094;28;20700;-60
2022/06/10 01:30:48;;;;;;;7.70;3.67;;;;;;;37.38;20.56;94412.66;5053236;28;20236;-60
2022/06/10 01:33:47;;;;;;;7.03;3.50;;;;;;;37.56;21.36;94412.97;5050905;28;20369;-60
2022/06/10 01:36:37;;;;;;;8.17;3.93;;;;;;;37.28;20.88;94415.81;5046245;28;20205;-60
2022/06/10 01:39:40;;;;;;;9.67;3.57;;;;;;;37.44;21.16;94418.34;5048995;28;20558;-60
2022/06/10 01:42:43;;;;;;;8.23;3.90;;;;;;;37.53;21.34;94417.38;5056379;28;20800;-60
2022/06/10 01:45:41;;;;;;;11.60;4.00;;;;;;;37.37;20.64;94426.53;5043254;28;20232;-60
2022/06/10 01:48:34;;;;;;;6.63;3.83;;;;;;;37.43;21.29;94423.47;5057680;28;20224;-60
2022/06/10 01:51:36;;;;;;;10.63;3.40;;;;;;;37.25;20.87;94421.69;5053603;28;20568;-60
2022/06/10 01:54:32;;;;;;;7.43;3.90;;;;;;;36.36;21.57;94428.63;5048291;28;20197;-60
2022/06/10 01:57:27;;;;;;;7.30;3.70;;;;;;;36.52;21.79;94415.91;5050578;28;20217;-60
2022/06/10 02:00:19;;;;;;;6.00;4.20;;;;;;;37.00;21.00;94420.78;5056541;28;20197;-60
2022/06/10 02:03:03;;;;;;;7.30;4.20;;;;;;;36.78;21.42;94418.34;5049065;28;20909;-60
2022/06/10 02:06:14;;;;;;;8.00;4.77;;;;;;;36.88;21.73;94426.88;5057253;28;20248;-60
2022/06/10 02:09:04;;;;;;;7.13;4.20;;;;;;;36.88;21.60;94429.81;5053499;28;20212;-60
2022/06/10 02:12:03;;;;;;;9.90;4.00;;;;;;;36.37;22.08;94430.78;5054880;28;20245;-60
2022/06/10 02:14:58;;;;;;;12.17;4.20;;;;;;;36.99;21.10;94425.19;5055264;28;20826;-60
2022/06/10 02:18:03;;;;;;;7.80;3.67;;;;;;;36.44;21.21;94446.00;5052403;28;20275;-60
2022/06/10 02:21:00;;;;;;;7.47;4.07;;;;;;;36.64;21.24;94444.91;5058665;28;20233;-60
2022/06/10 02:24:01;;;;;;;8.90;3.97;;;;;;;35.96;22.08;94442.47;5055375;28;20566;-60
2022/06/10 02:26:47;;;;;;;10.50;4.30;;;;;;;37.10;21.31;94441.03;5054446;28;20285;-60
2022/06/10 02:29:40;;;;;;;9.70;4.73;;;;;;;37.02;21.34;94447.03;5058384;28;20206;-59
2022/06/10 02:32:24;;;;;;;13.20;3.90;;;;;;;36.83;21.06;94451.81;5062111;28;20225;-60
2022/06/10 02:35:11;;;;;;;8.37;4.37;;;;;;;37.13;21.31;94451.19;5057760;28;20205;-60
2022/06/10 02:37:59;;;;;;;7.13;4.07;;;;;;;37.33;21.34;94455.88;5046387;28;20685;-59
2022/06/10 02:40:44;;;;;;;8.30;3.90;;;;;;;37.58;20.95;94450.22;5053190;28;20252;-59
2022/06/10 02:43:45;;;;;;;11.07;4.47;;;;;;;36.51;21.57;94461.91;5057029;28;20265;-59
2022/06/10 02:46:36;;;;;;;13.83;3.90;;;;;;;37.13;21.60;94465.81;5055697;28;20255;-60
2022/06/10 02:49:21;;;;;;;7.07;3.40;;;;;;;35.65;23.25;94468.47;5059178;28;20190;-59
2022/06/10 02:52:08;;;;;;;5.80;3.03;;;;;;;35.58;22.95;94472.94;5055614;28;20197;-60
2022/06/10 02:54:52;;;;;;;6.33;3.00;;;;;;;36.49;21.61;94474.34;5064645;28;20192;-59
2022/06/10 03:01:13;;;;;;;3.07;2.57;;;;;;;36.43;22.46;94476.66;5056235;28;20268;-59
2022/06/10 03:04:00;;;;;;;6.13;2.47;;;;;;;35.43;22.80;94479.75;5057175;28;20276;-59
2022/06/10 03:06:44;;;;;;;4.23;2.33;;;;;;;36.80;21.45;94473.78;5046812;28;20203;-59
2022/06/10 03:09:47;;;;;;;2.83;1.90;;;;;;;34.86;23.21;94481.22;5050628;28;20281;-59
2022/06/10 03:12:55;;;;;;;7.60;2.47;;;;;;;37.07;21.03;94483.47;5063784;28;20191;-60
2022/06/10 03:15:56;;;;;;;5.30;1.83;;;;;;;35.84;21.84;94488.63;5057943;28;20267;-63
2022/06/10 03:18:46;;;;;;;4.70;1.60;;;;;;;37.15;20.86;94492.09;5050356;28;20190;-59
2022/06/10 03:22:04;;;;;;;3.67;1.57;;;;;;;37.92;20.54;94493.28;5047492;28;20225;-60
2022/06/10 03:25:09;;;;;;;5.43;1.50;;;;;;;36.04;22.10;94491.22;5046789;28;20754;-59
2022/06/10 03:28:02;;;;;;;4.40;1.30;;;;;;;36.49;21.56;94494.78;5061120;28;20658;-59
2022/06/10 03:31:10;;;;;;;5.70;1.70;;;;;;;37.45;20.35;94501.69;5049255;28;20192;-59
2022/06/10 03:34:42;;;;;;;7.43;2.37;;;;;;;37.48;20.72;94500.13;5063875;28;20201;-59
2022/06/10 03:37:27;;;;;;;3.30;1.70;;;;;;;37.98;19.66;94501.91;5058786;28;20266;-59
2022/06/10 03:40:22;;;;;;;2.73;1.60;;;;;;;36.52;21.13;94503.53;5057655;28;20204;-59
2022/06/10 03:43:09;;;;;;;3.27;1.73;;;;;;;36.70;20.94;94500.28;5050783;28;20224;-59
2022/06/10 03:45:59;;;;;;;6.10;1.93;;;;;;;37.24;20.73;94507.97;5051626;28;20235;-59
2022/06/10 03:48:46;;;;;;;8.93;2.37;;;;;;;37.39;20.96;94504.72;5052307;28;20248;-59
2022/06/10 03:51:31;;;;;;;2.20;1.40;;;;;;;37.38;20.56;94500.38;5053777;28;20248;-59
2022/06/10 03:54:18;;;;;;;10.80;2.40;;;;;;;37.71;20.20;94509.88;5049519;28;20217;-60
2022/06/10 03:57:02;;;;;;;5.17;2.00;;;;;;;37.80;20.45;94516.25;5057781;28;20740;-59
2022/06/10 03:59:47;;;;;;;3.37;1.60;;;;;;;37.46;20.49;94514.81;5057964;28;20194;-60
2022/06/10 04:02:31;;;;;;;3.43;1.70;;;;;;;37.91;19.97;94526.94;5045407;28;20217;-60
2022/06/10 04:05:15;;;;;;;8.43;2.00;;;;;;;38.04;20.30;94524.47;5052129;28;20214;-60
2022/06/10 04:08:00;;;;;;;2.83;1.47;;;;;;;37.57;20.70;94530.69;5064076;28;20212;-59
2022/06/10 04:10:45;;;;;;;7.77;1.80;;;;;;;37.22;20.71;94525.53;5054296;28;20196;-60
2022/06/10 04:13:29;;;;;;;3.87;1.70;;;;;;;36.43;21.48;94526.28;5048233;28;20671;-60
2022/06/10 04:16:13;;;;;;;4.63;1.60;;;;;;;36.66;20.92;94524.47;5058114;28;20599;-60
2022/06/10 04:18:57;;;;;;;5.30;2.03;;;;;;;37.23;21.12;94524.06;5055977;28;20201;-60
2022/06/10 04:21:41;;;;;;;6.30;1.80;;;;;;;37.28;20.47;94519.56;5046903;28;20599;-59
2022/06/10 04:24:25;;;;;;;3.53;2.07;;;;;;;36.58;21.35;94523.84;5056455;28;20252;-59
2022/06/10 04:27:10;;;;;;;5.30;1.80;;;;;;;37.24;20.95;94534.25;5059177;28;20572;-59
2022/06/10 04:29:53;;;;;;;5.47;2.47;;;;;;;38.27;19.77;94530.50;5047601;28;20233;-60
2022/06/10 04:32:37;;;;;;;5.03;1.87;;;;;;;38.22;20.02;94532.09;5051994;28;20328;-59
2022/06/10 04:35:23;;;;;;;6.47;1.50;;;;;;;38.49;19.64;94535.81;5053510;28;20205;-60
2022/06/10 04:38:08;;;;;;;4.57;2.00;;;;;;;38.70;19.52;94539.63;5052397;28;20229;-60
2022/06/10 04:40:52;;;;;;;3.67;1.53;;;;;;;38.93;19.73;94542.00;5051152;28;20252;-60
2022/06/10 04:43:37;;;;;;;11.33;1.77;;;;;;;39.15;19.08;94535.50;5056897;28;20264;-60
2022/06/10 04:46:28;;;;;;;5.67;1.90;;;;;;;38.64;19.74;94544.97;5054908;28;20287;-59
2022/06/10 04:49:12;;;;;;;3.97;1.70;;;;;;;37.65;21.09;94542.19;5055518;28;20677;-60
2022/06/10 04:51:57;;;;;;;4.03;2.20;;;;;;;38.15;20.60;94543.22;5045413;28;20251;-60
2022/06/10 04:54:41;;;;;;;4.77;1.80;;;;;;;38.09;20.30;94540.44;5055206;28;20197;-60
2022/06/10 04:57:26;;;;;;;4.33;1.83;;;;;;;37.66;20.41;94546.53;5063170;28;20284;-60
2022/06/10 05:00:15;;;;;;;5.40;1.77;;;;;;;38.25;20.12;94551.06;5049687;28;20320;-60
2022/06/10 05:02:59;;;;;;;3.33;1.50;;;;;;;37.82;20.08;94548.41;5057248;28;20224;-60
2022/06/10 05:05:44;;;;;;;3.43;1.40;;;;;;;38.26;19.81;94552.50;5056561;28;20200;-60
2022/06/10 05:08:28;;;;;;;3.57;1.47;;;;;;;37.56;20.45;94564.28;5062060;28;20564;-60
2022/06/10 05:11:12;;;;;;;2.50;1.20;;;;;;;37.64;20.31;94558.31;5055465;28;20669;-60
2022/06/10 05:13:56;;;;;;;4.73;1.67;;;;;;;36.86;21.27;94552.53;5053660;28;20202;-60
2022/06/10 05:16:41;;;;;;;3.63;1.73;;;;;;;36.83;21.34;94559.91;5054321;28;20576;-60
2022/06/10 05:19:24;;;;;;;4.80;1.80;;;;;;;37.65;20.71;94566.28;5059602;28;20201;-60
2022/06/10 05:22:08;;;;;;;3.50;1.57;;;;;;;37.70;20.67;94566.94;5051568;28;20213;-60
2022/06/10 05:24:52;;;;;;;3.40;1.63;;;;;;;37.18;20.83;94568.75;5047673;28;20617;-60
2022/06/10 05:27:36;;;;;;;4.20;1.57;;;;;;;37.67;20.82;94569.19;5062278;28;20200;-60
2022/06/10 05:30:23;;;;;;;9.97;4.30;;;;;;;37.25;21.04;94567.88;5053824;28;20270;-60
2022/06/10 05:33:10;;;;;;;8.53;4.27;;;;;;;37.63;21.11;94568.56;5051559;28;20189;-60
2022/06/10 05:35:54;;;;;;;6.17;2.50;;;;;;;38.73;20.20;94576.19;5054972;28;20201;-60
2022/06/10 05:38:38;;;;;;;3.60;1.83;;;;;;;39.64;19.90;94572.94;5045630;28;20217;-60
2022/06/10 05:44:26;;;;;;;4.93;2.00;;;;;;;39.87;19.34;94576.69;5039324;28;20247;-60
2022/06/10 05:47:13;;;;;;;3.57;1.47;;;;;;;39.93;18.78;94584.59;5054863;28;20228;-60
2022/06/10 05:49:59;;;;;;;6.40;1.63;;;;;;;39.92;18.97;94586.09;5055199;28;20248;-60
2022/06/10 05:52:43;;;;;;;3.23;1.33;;;;;;;40.69;19.15;94580.69;5054521;28;20244;-60
2022/06/10 05:55:30;;;;;;;3.43;1.20;;;;;;;39.87;18.75;94590.66;5059527;28;20669;-60
2022/06/10 05:58:14;;;;;;;3.37;1.57;;;;;;;40.75;19.09;94589.31;5060026;28;20349;-60
2022/06/10 06:00:58;;;;;;;3.63;1.27;;;;;;;40.63;18.66;94590.41;5051311;28;20190;-60
2022/06/10 06:03:42;;;;;;;4.07;1.70;;;;;;;40.34;18.31;94584.75;5052932;28;20292;-61
2022/06/10 06:06:26;;;;;;;9.77;1.60;;;;;;;40.23;18.66;94586.59;5065322;28;20221;-60
2022/06/10 06:09:14;;;;;;;3.53;1.43;;;;;;;40.11;19.00;94586.25;5062063;28;20216;-60
2022/06/10 06:11:59;;;;;;;5.23;1.20;;;;;;;38.59;19.72;94587.56;5061419;28;20703;-60
2022/06/10 06:14:43;;;;;;;4.27;1.80;;;;;;;39.14;19.61;94593.41;5061866;28;20289;-60
2022/06/10 06:17:27;;;;;;;3.23;1.30;;;;;;;39.54;19.36;94594.53;5057842;28;20198;-60
2022/06/10 06:20:13;;;;;;;3.20;1.43;;;;;;;39.65;19.70;94597.88;5059732;28;20683;-60
2022/06/10 06:22:58;;;;;;;3.03;1.27;;;;;;;39.08;19.87;94593.59;5053496;28;20589;-60
2022/06/10 06:25:44;;;;;;;4.37;1.23;;;;;;;38.89;19.68;94594.84;5063842;28;20205;-60
2022/06/10 06:28:28;;;;;;;3.37;1.83;;;;;;;39.74;19.67;94604.22;5051742;28;20191;-60
2022/06/10 06:31:13;;;;;;;2.80;1.23;;;;;;;38.93;20.38;94606.50;5057824;28;20677;-60
2022/06/10 06:33:57;;;;;;;5.97;1.93;;;;;;;39.75;19.51;94611.53;5061737;28;20221;-60
2022/06/10 06:36:46;;;;;;;2.80;1.30;;;;;;;39.05;19.76;94609.09;5055946;28;20252;-60
2022/06/10 06:39:31;;;;;;;1.97;1.10;;;;;;;40.13;18.99;94624.34;5044499;28;20664;-60
2022/06/10 06:42:16;;;;;;;5.00;1.47;;;;;;;39.10;19.88;94613.34;5050304;28;20305;-60
2022/06/10 06:45:04;;;;;;;3.90;1.60;;;;;;;39.34;20.10;94612.69;5052515;28;20639;-61
2022/06/10 06:47:51;;;;;;;7.53;1.67;;;;;;;40.39;18.45;94609.56;5053173;28;20198;-61
2022/06/10 06:50:42;;;;;;;3.60;1.40;;;;;;;40.29;18.47;94612.84;5057817;28;20190;-60
2022/06/10 06:53:26;;;;;;;6.60;1.30;;;;;;;39.60;19.57;94611.94;5047985;28;20669;-61
2022/06/10 06:56:10;;;;;;;2.00;1.30;;;;;;;39.45;19.60;94616.06;5053170;28;20217;-61
2022/06/10 06:58:56;;;;;;;3.33;1.47;;;;;;;39.63;19.87;94613.31;5063865;28;20220;-61
2022/06/10 07:01:40;;;;;;;2.23;1.43;;;;;;;41.38;18.16;94619.47;5056711;28;20226;-61
2022/06/10 07:04:26;;;;;;;5.30;1.53;;;;;;;40.17;19.10;94616.13;5061950;28;20766;-61
2022/06/10 07:07:10;;;;;;;4.77;1.70;;;;;;;39.60;19.37;94614.88;5052690;28;20189;-61
2022/06/10 07:09:54;;;;;;;6.23;1.90;;;;;;;39.11;20.05;94620.66;5049683;28;20279;-61
2022/06/10 07:12:38;;;;;;;8.20;1.70;;;;;;;40.90;18.56;94621.88;5056949;28;20192;-61
2022/06/10 07:15:23;;;;;;;7.37;2.00;;;;;;;41.93;17.07;94621.13;5057331;28;20205;-61
2022/06/10 07:18:07;;;;;;;3.90;1.37;;;;;;;40.93;18.23;94632.78;5057767;28;20220;-61
2022/06/10 07:20:51;;;;;;;3.07;1.47;;;;;;;41.90;17.13;94635.25;5063930;28;20232;-61
2022/06/10 07:23:35;;;;;;;7.20;2.07;;;;;;;42.07;17.03;94628.72;5046296;28;20252;-62
2022/06/10 07:26:19;;;;;;;3.70;1.60;;;;;;;41.78;17.42;94641.56;5058994;28;20197;-61
2022/06/10 07:29:03;;;;;;;5.37;1.53;;;;;;;43.06;16.60;94633.56;5056392;28;20710;-61
2022/06/10 07:31:48;;;;;;;4.43;1.50;;;;;;;42.67;17.03;94634.44;5048749;28;20204;-61
2022/06/10 07:34:32;;;;;;;4.68;1.50;;;;;;;41.85;17.52;94633.22;5047970;28;20572;-61
2022/06/10 07:37:16;;;;;;;2.43;1.50;;;;;;;41.26;17.50;94635.34;5059957;28;20308;-62
2022/06/10 07:40:00;;;;;;;3.73;1.47;;;;;;;41.46;16.99;94619.19;5059440;28;20710;-61
2022/06/10 07:42:44;;;;;;;2.87;1.27;;;;;;;41.86;17.20;94635.34;5047121;28;20228;-62
2022/06/10 07:45:28;;;;;;;6.40;1.53;;;;;;;42.01;17.01;94628.94;5054255;28;20196;-62
2022/06/10 07:48:12;;;;;;;6.83;1.57;;;;;;;41.71;16.93;94631.53;5055053;28;20283;-61
2022/06/10 07:50:56;;;;;;;4.33;1.50;;;;;;;42.90;16.25;94628.38;5055629;28;20193;-61
2022/06/10 07:53:41;;;;;;;3.30;1.45;;;;;;;41.75;16.01;94631.34;5059052;28;20798;-61
2022/06/10 07:56:25;;;;;;;4.32;1.48;;;;;;;42.98;15.62;94636.84;5055921;28;20205;-61
2022/06/10 07:59:10;;;;;;;4.97;1.60;;;;;;;42.31;16.09;94642.53;5054225;28;20229;-62
2022/06/10 08:01:54;;;;;;;6.00;1.50;;;;;;;42.86;15.31;94640.31;5052798;28;20263;-62
2022/06/10 08:04:38;;;;;;;13.23;1.90;;;;;;;44.51;14.47;94634.41;5059127;28;20232;-62
2022/06/10 08:07:22;;;;;;;3.40;1.42;;;;;;;46.19;13.73;94637.59;5042721;28;20204;-62
2022/06/10 08:10:14;;;;;;;4.53;1.40;;;;;;;46.23;13.52;94643.34;5051077;28;20255;-62
2022/06/10 08:12:59;;;;;;;4.57;1.52;;;;;;;44.06;15.12;94632.84;5056697;28;20243;-62
2022/06/10 08:15:45;;;;;;;5.00;1.75;;;;;;;46.22;13.20;94636.69;5055564;28;20256;-62
2022/06/10 08:18:31;;;;;;;5.18;1.80;;;;;;;46.54;12.85;94645.31;5058172;28;20228;-62
2022/06/10 08:24:20;;;;;;;4.65;1.40;;;;;;;46.38;13.21;94635.06;5054710;28;20209;-62
2022/06/10 08:27:04;;;;;;;5.40;2.05;;;;;;;46.24;12.91;94638.81;5051093;28;20286;-62
2022/06/10 08:29:49;;;;;;;6.20;1.92;;;;;;;46.58;13.19;94633.25;5051909;28;20252;-62
2022/06/10 08:32:32;;;;;;;9.68;2.35;;;;;;;45.51;12.93;94637.53;5056261;28;20188;-62
2022/06/10 08:35:17;;;;;;;6.93;2.05;;;;;;;47.40;12.02;94647.78;5053746;28;20247;-63
2022/06/10 08:38:04;;;;;;;6.07;1.80;;;;;;;46.78;12.21;94643.22;5056586;28;20635;-63
2022/06/10 08:41:03;;;;;;;3.33;1.50;;;;;;;46.89;12.65;94644.06;5057643;28;20199;-63
2022/06/10 08:44:11;;;;;;;3.65;1.83;;;;;;;47.29;12.10;94641.69;5050310;28;20709;-63
2022/06/10 08:47:29;;;;;;;4.63;1.73;;;;;;;48.56;11.62;94644.28;5055771;28;20201;-63
2022/06/10 08:50:44;;;;;;;5.45;1.33;;;;;;;49.06;11.25;94649.19;5054616;28;20570;-63
2022/06/10 08:53:44;;;;;;;3.17;1.60;;;;;;;49.71;10.73;94638.81;5051784;28;20270;-63
2022/06/10 08:56:40;;;;;;;6.65;1.80;;;;;;;49.88;10.99;94644.38;5056927;28;20289;-63
2022/06/10 08:59:30;;;;;;;4.22;1.35;;;;;;;49.08;11.74;94642.34;5051942;28;20237;-64
2022/06/10 09:02:31;;;;;;;5.68;1.90;;;;;;;48.58;12.19;94635.91;5041995;28;20221;-64
2022/06/10 09:05:28;;;;;;;5.20;1.75;;;;;;;47.53;12.67;94639.53;5050662;28;20620;-63
2022/06/10 09:08:16;;;;;;;6.25;1.88;;;;;;;49.68;10.81;94641.25;5057960;28;20205;-63
2022/06/10 09:11:32;;;;;;;5.25;1.50;;;;;;;50.36;10.90;94640.22;5049228;28;20197;-63
2022/06/10 09:14:25;;;;;;;5.60;1.67;;;;;;;50.69;10.33;94650.50;5052232;28;20197;-64
2022/06/10 09:17:18;;;;;;;4.43;1.83;;;;;;;50.43;10.27;94635.91;5056301;28;20564;-63
2022/06/10 09:20:14;;;;;;;3.65;1.33;;;;;;;50.25;10.35;94649.16;5060952;28;20238;-63
2022/06/10 09:23:05;;;;;;;4.07;1.17;;;;;;;49.79;10.80;94639.00;5055293;28;20662;-63
2022/06/10 09:25:58;;;;;;;3.20;1.15;;;;;;;49.04;11.13;94647.03;5062636;28;20259;-63
2022/06/10 09:28:44;;;;;;;5.05;1.63;;;;;;;50.77;9.88;94649.91;5054203;28;20251;-65
2022/06/10 09:32:06;;;;;;;2.80;1.48;;;;;;;50.55;9.50;94652.28;5051933;28;20189;-64
2022/06/10 09:34:59;;;;;;;3.85;1.33;;;;;;;47.10;11.55;94647.28;5051958;28;20201;-64
2022/06/10 09:37:55;;;;;;;3.13;1.48;;;;;;;48.49;10.80;94646.94;5058795;28;20197;-64
2022/06/10 09:40:50;;;;;;;4.03;1.40;;;;;;;50.02;10.27;94653.03;5059751;28;20197;-64
2022/06/10 09:43:47;;;;;;;2.45;1.33;;;;;;;49.65;10.36;94651.88;5055764;28;20624;-63
2022/06/10 09:46:58;;;;;;;5.55;1.88;;;;;;;49.44;10.88;94648.19;5064874;28;20239;-64
2022/06/10 09:50:05;;;;;;;3.38;1.00;;;;;;;50.40;10.67;94658.53;5052274;28;20202;-64
2022/06/10 09:52:49;;;;;;;1.90;1.10;;;;;;;48.19;11.32;94652.56;5054877;28;20608;-64
2022/06/10 09:55:43;;;;;;;4.22;1.65;;;;;;;46.94;12.19;94636.38;5052786;28;20563;-64
2022/06/10 09:58:36;;;;;;;3.53;1.52;;;;;;;47.82;11.03;94647.44;5058191;28;20210;-64
2022/06/10 10:01:39;;;;;;;2.80;1.63;;;;;;;48.10;11.01;94645.69;5052009;28;20252;-64
2022/06/10 10:04:53;;;;;;;3.70;1.40;;;;;;;47.95;11.28;94648.13;5060486;28;20211;-64
2022/06/10 10:07:53;;;;;;;5.22;1.40;;;;;;;48.70;10.58;94649.31;5053544;28;20285;-64
2022/06/10 10:10:54;;;;;;;2.63;1.40;;;;;;;48.90;10.86;94639.06;5054937;28;20228;-64
2022/06/10 10:13:55;;;;;;;3.03;1.10;;;;;;;49.53;10.11;94646.75;5061106;28;20256;-64
2022/06/10 10:17:11;;;;;;;2.90;1.23;;;;;;;45.09;12.02;94630.81;5043220;28;20212;-64
2022/06/10 10:20:17;;;;;;;4.55;1.48;;;;;;;47.43;11.00;94637.19;5056365;28;20559;-64
2022/06/10 10:23:43;;;;;;;2.80;1.38;;;;;;;47.03;10.72;94631.41;5058977;28;20215;-64
2022/06/10 10:26:29;;;;;;;3.50;1.25;;;;;;;45.83;11.72;94629.19;5053008;28;20260;-65
2022/06/10 10:29:19;;;;;;;4.80;1.80;;;;;;;45.15;12.21;94623.88;5052162;28;20568;-65
2022/06/10 10:32:28;;;;;;;3.70;1.45;;;;;;;44.83;12.85;94629.88;5051451;28;20197;-64
2022/06/10 10:35:23;;;;;;;2.35;1.30;;;;;;;45.70;11.84;94631.34;5053012;28;20196;-64
2022/06/10 10:38:32;;;;;;;2.75;1.00;;;;;;;45.02;12.36;94629.69;5046231;28;20198;-64
2022/06/10 10:41:27;;;;;;;1.30;0.93;;;;;;;47.71;10.92;94637.75;5055747;28;20197;-65
2022/06/10 10:44:32;;;;;;;1.95;1.05;;;;;;;49.15;10.47;94644.09;5053746;28;20248;-65
2022/06/10 10:47:23;;;;;;;1.92;1.10;;;;;;;49.42;9.96;94646.72;5065065;28;20256;-65
2022/06/10 10:50:17;;;;;;;2.20;1.40;;;;;;;49.45;9.64;94644.31;5054053;28;20197;-64
2022/06/10 10:53:18;;;;;;;4.68;1.20;;;;;;;48.87;10.25;94646.00;5054469;28;20236;-65
2022/06/10 10:56:04;;;;;;;2.72;1.33;;;;;;;49.74;9.73;94649.03;5054981;28;20197;-64
2022/06/10 10:58:52;;;;;;;2.05;1.10;;;;;;;51.09;9.19;94647.50;5055546;28;20239;-64
2022/06/10 11:01:46;;;;;;;2.05;1.20;;;;;;;48.52;10.43;94641.56;5048372;28;20225;-65
2022/06/10 11:04:38;;;;;;;2.80;1.15;;;;;;;52.63;8.55;94653.47;5054817;28;20710;-65
2022/06/10 11:07:22;;;;;;;2.40;1.15;;;;;;;52.41;8.17;94646.25;5058688;28;20293;-66
2022/06/10 11:10:12;;;;;;;4.78;1.27;;;;;;;52.02;8.75;94634.38;5055462;28;20289;-66
2022/06/10 11:13:01;;;;;;;2.28;1.08;;;;;;;53.08;8.10;94646.78;5050172;28;20204;-66
2022/06/10 11:15:48;;;;;;;2.50;1.27;;;;;;;52.46;8.34;94641.38;5053470;28;20204;-66
2022/06/10 11:18:37;;;;;;;3.53;1.30;;;;;;;53.66;8.21;94638.13;5049166;28;20197;-66
2022/06/10 11:21:25;;;;;;;2.53;1.05;;;;;;;53.67;7.96;94642.53;5050186;28;20201;-66
2022/06/10 11:24:15;;;;;;;2.35;1.17;;;;;;;52.07;8.64;94641.44;5054525;28;20213;-66
2022/06/10 11:27:02;;;;;;;4.47;1.20;;;;;;;51.98;8.91;94639.97;5055312;28;20294;-65
2022/06/10 11:30:11;;;;;;;2.75;1.20;;;;;;;49.35;9.92;94624.16;5055247;28;20194;-65
2022/06/10 11:33:00;;;;;;;2.42;1.10;;;;;;;48.56;10.43;94626.44;5059386;28;20259;-66
2022/06/10 11:36:01;;;;;;;3.05;1.00;;;;;;;51.14;9.55;94630.72;5058657;28;20200;-66
2022/06/10 11:39:04;;;;;;;2.60;1.17;;;;;;;51.89;9.48;94627.94;5055106;28;20197;-66
2022/06/10 11:42:07;;;;;;;1.58;1.10;;;;;;;51.18;9.63;94627.41;5050563;28;20213;-67
2022/06/10 11:44:58;;;;;;;2.13;1.02;;;;;;;52.14;8.93;94632.69;5041058;28;20578;-66
2022/06/10 11:47:49;;;;;;;4.05;1.15;;;;;;;50.95;9.24;94627.66;5064268;28;20746;-66
2022/06/10 11:50:46;;;;;;;8.45;1.73;;;;;;;52.51;8.85;94625.22;5056608;28;20675;-66
2022/06/10 11:53:51;;;;;;;1.80;1.00;;;;;;;51.83;9.04;94615.75;5063501;28;20255;-65
2022/06/10 12:00:08;;;;;;;3.85;1.40;;;;;;;50.62;9.63;94610.75;5055511;28;20598;-66
2022/06/10 12:02:58;;;;;;;3.40;1.20;;;;;;;53.38;8.42;94623.28;5050106;28;20229;-65
2022/06/10 12:06:04;;;;;;;3.10;1.52;;;;;;;50.91;9.41;94616.03;5057965;28;20832;-66
2022/06/10 12:09:00;;;;;;;4.18;1.92;;;;;;;50.36;9.99;94608.13;5055166;28;20296;-66
2022/06/10 12:11:57;;;;;;;4.07;1.23;;;;;;;50.27;9.88;94598.31;5059446;28;20200;-66
2022/06/10 12:14:46;;;;;;;4.63;1.60;;;;;;;52.11;9.58;94608.22;5054406;28;20204;-66
2022/06/10 12:17:34;;;;;;;2.75;1.45;;;;;;;52.46;8.63;94615.16;5060217;28;20240;-66
2022/06/10 12:20:29;;;;;;;3.05;1.52;;;;;;;51.90;8.97;94611.44;5057561;28;20193;-66
2022/06/10 12:23:27;;;;;;;3.45;1.67;;;;;;;52.47;8.47;94612.84;5049863;28;20333;-67
2022/06/10 12:26:45;;;;;;;4.82;1.40;;;;;;;52.74;8.61;94614.41;5057031;28;20254;-67
2022/06/10 12:29:41;;;;;;;2.78;1.58;;;;;;;53.33;8.97;94607.22;5054228;28;20261;-67
2022/06/10 12:32:41;;;;;;;4.13;1.42;;;;;;;52.98;8.91;94612.38;5052007;28;20199;-67
2022/06/10 12:35:34;;;;;;;4.80;1.10;;;;;;;53.02;8.58;94617.34;5052185;28;20205;-67
2022/06/10 12:38:30;;;;;;;2.42;1.33;;;;;;;52.57;9.35;94609.06;5052029;28;20194;-66
2022/06/10 12:41:19;;;;;;;2.70;1.02;;;;;;;54.07;8.05;94608.34;5055861;28;20751;-66
2022/06/10 12:44:11;;;;;;;3.42;1.45;;;;;;;53.91;8.61;94615.75;5054228;28;20274;-67
2022/06/10 12:47:00;;;;;;;1.67;1.30;;;;;;;55.35;7.64;94611.81;5055460;28;20228;-66
2022/06/10 12:49:46;;;;;;;3.75;1.38;;;;;;;55.50;7.37;94605.88;5050219;28;20193;-67
2022/06/10 12:52:42;;;;;;;3.42;1.38;;;;;;;55.50;6.92;94609.56;5055255;28;20201;-67
2022/06/10 12:55:36;;;;;;;4.50;1.50;;;;;;;55.16;7.39;94601.47;5048998;28;20197;-67
2022/06/10 12:58:48;;;;;;;2.15;1.10;;;;;;;51.70;8.73;94589.78;5054452;28;20277;-67
2022/06/10 13:01:32;;;;;;;1.63;1.10;;;;;;;53.04;7.99;94590.19;5055311;28;20221;-66
2022/06/10 13:04:19;;;;;;;3.45;1.42;;;;;;;54.70;7.25;94587.69;5048685;28;20309;-67
2022/06/10 13:07:05;;;;;;;1.23;1.02;;;;;;;55.79;8.15;94594.88;5055032;28;20242;-67
2022/06/10 13:09:49;;;;;;;2.40;1.20;;;;;;;53.49;8.69;94599.16;5047260;28;20202;-66
2022/06/10 13:12:37;;;;;;;3.25;1.45;;;;;;;56.64;6.39;94602.41;5045604;28;20292;-66
2022/06/10 13:15:29;;;;;;;2.38;0.95;;;;;;;58.00;6.01;94603.66;5046800;28;20268;-66
2022/06/10 13:18:19;;;;;;;2.85;1.10;;;;;;;57.33;7.18;94598.50;5052284;28;20204;-68
2022/06/10 13:21:14;;;;;;;2.55;1.05;;;;;;;55.23;7.48;94589.59;5051447;28;20233;-68
2022/06/10 13:23:58;;;;;;;2.03;1.23;;;;;;;56.17;6.83;94587.47;5056593;28;20580;-67
2022/06/10 13:26:42;;;;;;;2.30;1.10;;;;;;;55.98;6.61;94594.56;5044095;28;20569;-68
2022/06/10 13:29:29;;;;;;;3.15;1.30;;;;;;;57.94;6.30;94598.28;5051616;28;20201;-68
2022/06/10 13:32:14;;;;;;;3.72;1.20;;;;;;;59.32;5.13;94607.72;5054391;28;20193;-68
2022/06/10 13:35:02;;;;;;;2.33;1.20;;;;;;;58.05;5.97;94592.56;5054776;28;20233;-68
2022/06/10 13:37:48;;;;;;;5.20;1.30;;;;;;;55.44;6.54;94594.41;5051261;28;20252;-68